Time;durP1;ratioP1;P1;durP2;ratioP2;P2;SDS_P1;SDS_P2;PMS_P1;PMS_P2;Temp;Humidity;BMP_temperature;BMP_pressure;BME280_temperature;BME280_humidity;BME280_pressure;Samples;Min_cycle;Max_cycle;Signal;HPM_P1;HPM_P2
2023/10/18 00:01:14;;;;;;;4.07;2.87;;;;;;;7.23;61.61;99943.41;4465211;32;34572;-80
2023/10/18 00:03:43;;;;;;;3.45;2.47;;;;;;;7.12;61.81;99945.06;4471316;32;33340;-79
2023/10/18 00:06:15;;;;;;;4.70;2.75;;;;;;;7.11;61.65;99943.38;4466902;32;33532;-80
2023/10/18 00:08:46;;;;;;;3.85;2.87;;;;;;;7.14;61.76;99945.09;4461255;32;33879;-79
2023/10/18 00:11:15;;;;;;;4.50;2.83;;;;;;;7.16;61.77;99936.50;4472835;32;36042;-81
2023/10/18 00:13:52;;;;;;;7.18;3.70;;;;;;;7.07;61.99;99928.72;4472844;32;33230;-80
2023/10/18 00:16:25;;;;;;;6.15;3.12;;;;;;;6.99;62.18;99933.00;4467889;32;33558;-81
2023/10/18 00:18:54;;;;;;;8.63;3.28;;;;;;;6.99;62.22;99920.94;4461363;32;33753;-80
2023/10/18 00:21:23;;;;;;;7.62;4.20;;;;;;;7.07;61.87;99927.84;4468885;32;87553;-80
2023/10/18 00:23:52;;;;;;;4.68;3.20;;;;;;;7.08;61.69;99925.31;4462787;32;33985;-79
2023/10/18 00:26:21;;;;;;;4.50;2.97;;;;;;;6.99;61.84;99926.09;4473275;32;34685;-80
2023/10/18 00:28:50;;;;;;;2.80;2.40;;;;;;;7.07;61.66;99933.03;4461342;32;33623;-81
2023/10/18 00:31:20;;;;;;;7.37;3.42;;;;;;;6.93;61.82;99940.69;4461520;32;33573;-81
2023/10/18 00:33:51;;;;;;;4.95;2.47;;;;;;;7.10;61.25;99938.19;4461246;32;33697;-81
2023/10/18 00:36:20;;;;;;;5.03;3.05;;;;;;;6.69;62.44;99928.50;4466962;32;33567;-79
2023/10/18 00:38:49;;;;;;;6.43;2.95;;;;;;;6.64;62.45;99923.31;4472737;32;34489;-79
2023/10/18 00:41:21;;;;;;;4.65;3.00;;;;;;;6.80;62.11;99916.53;4476766;32;33915;-80
2023/10/18 00:43:52;;;;;;;6.72;3.37;;;;;;;6.90;61.52;99926.03;4473826;32;33171;-79
2023/10/18 00:46:22;;;;;;;4.37;2.97;;;;;;;6.75;61.72;99920.81;4460919;32;34166;-80
2023/10/18 00:48:53;;;;;;;5.80;3.25;;;;;;;6.73;61.95;99923.38;4474328;32;34565;-82
2023/10/18 00:51:24;;;;;;;9.07;3.45;;;;;;;6.77;61.54;99912.22;4465321;32;34656;-79
2023/10/18 00:53:53;;;;;;;6.30;3.45;;;;;;;6.64;61.67;99913.00;4464382;32;33714;-80
2023/10/18 00:56:22;;;;;;;5.07;3.12;;;;;;;6.68;61.73;99903.59;4475292;32;33465;-80
2023/10/18 00:58:54;;;;;;;6.17;3.17;;;;;;;6.80;61.35;99909.66;4475605;32;33596;-81
2023/10/18 01:01:23;;;;;;;4.05;2.50;;;;;;;6.83;61.05;99907.09;4471057;32;34484;-80
2023/10/18 01:03:54;;;;;;;5.00;2.90;;;;;;;6.57;61.81;99906.97;4468188;32;33094;-82
2023/10/18 01:06:27;;;;;;;10.07;3.12;;;;;;;6.56;61.82;99896.63;4467453;32;33671;-81
2023/10/18 01:08:56;;;;;;;10.40;3.17;;;;;;;6.62;61.73;99897.53;4466481;32;33211;-79
2023/10/18 01:11:28;;;;;;;9.90;3.35;;;;;;;6.50;61.87;99889.72;4465394;32;33715;-82
2023/10/18 01:14:00;;;;;;;4.30;2.97;;;;;;;6.60;61.89;99886.34;4466307;32;32926;-82
2023/10/18 01:16:31;;;;;;;4.25;2.90;;;;;;;6.25;62.53;99886.09;4462784;32;33341;-81
2023/10/18 01:19:04;;;;;;;7.32;4.25;;;;;;;6.54;61.90;99881.16;4463407;32;34073;-81
2023/10/18 01:21:33;;;;;;;4.55;2.90;;;;;;;6.39;62.16;99884.50;4465752;32;33916;-80
2023/10/18 01:24:04;;;;;;;5.65;3.22;;;;;;;6.43;62.51;99889.66;4465622;32;33265;-80
2023/10/18 01:26:37;;;;;;;5.60;3.17;;;;;;;6.49;62.02;99880.25;4460332;32;32989;-81
2023/10/18 01:29:08;;;;;;;10.02;3.28;;;;;;;6.45;62.18;99877.66;4464965;32;34773;-81
2023/10/18 01:31:41;;;;;;;;;;;;;;;6.41;62.05;99877.63;4470507;32;34624;-81
2023/10/18 01:34:11;;;;;;;4.55;2.80;;;;;;;6.51;61.42;99877.69;4472653;32;33876;-80
2023/10/18 01:36:40;;;;;;;5.05;3.05;;;;;;;6.42;62.07;99875.91;4460331;32;32979;-80
2023/10/18 01:39:20;;;;;;;6.25;3.20;;;;;;;6.23;62.70;99882.66;4463892;32;33812;-81
2023/10/18 01:41:53;;;;;;;9.40;2.85;;;;;;;6.29;62.04;99872.41;4466634;32;33420;-79
2023/10/18 01:44:30;;;;;;;4.75;2.78;;;;;;;6.46;61.72;99879.37;4459602;32;33057;-81
2023/10/18 01:47:06;;;;;;;7.07;3.15;;;;;;;6.33;62.21;99873.28;4464101;32;33378;-81
2023/10/18 01:49:40;;;;;;;2.95;2.35;;;;;;;6.19;62.35;99868.91;4465044;32;33560;-82
2023/10/18 01:52:11;;;;;;;6.25;2.90;;;;;;;6.41;61.72;99875.06;4459959;32;33565;-80
2023/10/18 01:54:41;;;;;;;4.97;3.03;;;;;;;6.48;61.21;99885.41;4467178;32;34073;-81
2023/10/18 01:57:12;;;;;;;8.77;3.33;;;;;;;6.41;61.50;99879.34;4461297;32;33787;-80
2023/10/18 01:59:41;;;;;;;3.65;2.65;;;;;;;6.51;60.59;99872.53;4472450;32;33736;-80
2023/10/18 02:02:11;;;;;;;5.80;3.50;;;;;;;6.31;61.22;99877.56;4471223;32;33560;-82
2023/10/18 02:04:40;;;;;;;3.80;2.95;;;;;;;6.31;61.18;99875.84;4466325;32;33136;-80
2023/10/18 02:07:21;;;;;;;5.80;2.60;;;;;;;6.19;61.29;99868.03;4459928;32;33498;-80
2023/10/18 02:09:57;;;;;;;6.28;3.67;;;;;;;6.24;61.04;99881.81;4467569;32;32457;-80
2023/10/18 02:12:31;;;;;;;5.30;2.97;;;;;;;6.08;61.63;99883.41;4480239;32;33845;-79
2023/10/18 02:15:04;;;;;;;5.00;3.20;;;;;;;6.16;61.61;99873.16;4469495;32;32831;-81
2023/10/18 02:17:35;;;;;;;6.55;4.25;;;;;;;6.11;61.65;99873.13;4461142;32;33138;-82
2023/10/18 02:20:13;;;;;;;8.48;3.87;;;;;;;5.96;62.20;99879.00;4465401;32;33653;-80
2023/10/18 02:22:46;;;;;;;9.00;4.45;;;;;;;6.02;62.13;99885.06;4459882;32;34662;-81
2023/10/18 02:25:29;;;;;;;4.05;2.70;;;;;;;6.01;62.01;99883.34;4471105;32;33287;-80
2023/10/18 02:27:59;;;;;;;11.73;3.28;;;;;;;5.75;62.61;99882.25;4464647;32;34776;-79
2023/10/18 02:30:28;;;;;;;6.75;3.65;;;;;;;5.83;62.92;99894.31;4461608;32;34172;-81
2023/10/18 02:33:01;;;;;;;5.10;2.83;;;;;;;5.98;62.22;99886.75;4462813;32;33644;-81
2023/10/18 02:35:30;;;;;;;7.37;4.20;;;;;;;5.91;62.23;99883.22;4459733;32;33159;-80
2023/10/18 02:38:08;;;;;;;5.18;3.70;;;;;;;5.89;62.47;99879.75;4471604;32;33705;-80
2023/10/18 02:40:40;;;;;;;10.00;3.95;;;;;;;5.89;62.33;99882.34;4461430;32;33531;-81
2023/10/18 02:43:14;;;;;;;5.28;2.92;;;;;;;5.85;62.63;99885.75;4464493;32;34419;-79
2023/10/18 02:45:52;;;;;;;6.55;3.33;;;;;;;5.88;62.33;99887.50;4466595;32;35422;-79
2023/10/18 02:48:24;;;;;;;6.22;3.15;;;;;;;5.91;62.39;99883.22;4459999;32;33576;-81
2023/10/18 02:50:57;;;;;;;6.62;3.60;;;;;;;5.66;62.83;99889.88;4467643;32;34552;-80
2023/10/18 02:53:26;;;;;;;4.28;2.85;;;;;;;5.69;63.41;99896.75;4462055;32;33624;-80
2023/10/18 02:55:56;;;;;;;6.10;2.22;;;;;;;5.67;62.97;99880.44;4463447;32;33782;-82
2023/10/18 02:58:32;;;;;;;4.50;2.50;;;;;;;5.75;62.78;99878.78;4461929;32;33769;-80
2023/10/18 03:01:05;;;;;;;4.12;2.80;;;;;;;5.76;62.54;99880.53;4467777;32;33613;-80
2023/10/18 03:03:34;;;;;;;6.22;3.17;;;;;;;5.85;61.88;99883.19;4451523;32;33986;-80
2023/10/18 03:06:13;;;;;;;3.80;2.35;;;;;;;5.78;62.57;99871.09;4461516;32;34113;-80
2023/10/18 03:08:44;;;;;;;4.75;2.45;;;;;;;5.80;62.33;99882.28;4462297;32;33385;-81
2023/10/18 03:11:13;;;;;;;4.43;2.78;;;;;;;5.53;62.97;99875.12;4472943;32;34372;-80
2023/10/18 03:13:44;;;;;;;4.95;2.95;;;;;;;5.73;62.84;99875.34;4465644;32;33762;-81
2023/10/18 03:16:17;;;;;;;4.70;2.72;;;;;;;5.86;62.59;99871.16;4461300;32;33573;-80
2023/10/18 03:18:46;;;;;;;4.75;2.65;;;;;;;5.38;63.69;99872.41;4464545;32;34291;-80
2023/10/18 03:21:21;;;;;;;3.40;2.72;;;;;;;5.68;63.11;99862.44;4468729;32;34645;-80
2023/10/18 03:23:51;;;;;;;2.85;2.28;;;;;;;5.66;62.92;99864.13;4468883;32;33413;-81
2023/10/18 03:26:22;;;;;;;3.95;2.80;;;;;;;5.71;62.42;99862.44;4483097;32;33308;-79
2023/10/18 03:29:01;;;;;;;5.65;3.60;;;;;;;5.57;62.92;99857.16;4466780;32;33748;-80
2023/10/18 03:31:35;;;;;;;4.90;2.75;;;;;;;5.42;63.38;99864.75;4469329;32;34703;-80
2023/10/18 03:34:09;;;;;;;5.12;2.95;;;;;;;5.45;63.35;99862.19;4462633;32;33593;-81
2023/10/18 03:36:48;;;;;;;3.37;2.50;;;;;;;5.54;63.14;99862.28;4460941;32;33063;-81
2023/10/18 03:39:18;;;;;;;4.55;2.45;;;;;;;5.29;63.55;99863.75;4472119;32;33842;-81
2023/10/18 03:41:49;;;;;;;6.32;2.83;;;;;;;5.41;63.12;99855.28;4477324;32;34034;-80
2023/10/18 03:44:26;;;;;;;3.67;2.58;;;;;;;5.44;63.15;99844.19;4465848;32;33538;-81
2023/10/18 03:47:03;;;;;;;5.32;2.95;;;;;;;5.66;62.45;99847.81;4462063;32;33425;-80
2023/10/18 03:49:33;;;;;;;4.05;2.87;;;;;;;5.53;62.79;99847.72;4464852;32;33873;-82
2023/10/18 03:52:16;;;;;;;5.00;3.30;;;;;;;5.54;63.02;99843.44;4470808;32;34584;-81
2023/10/18 03:54:46;;;;;;;3.83;2.47;;;;;;;5.53;62.60;99846.81;4462066;32;34337;-81
2023/10/18 03:57:19;;;;;;;4.32;2.92;;;;;;;5.55;62.35;99851.13;4477123;32;32700;-79
2023/10/18 03:59:49;;;;;;;4.85;3.03;;;;;;;5.42;62.68;99851.03;4477102;32;33147;-79
2023/10/18 04:02:26;;;;;;;3.25;2.53;;;;;;;5.37;62.88;99853.56;4477775;32;33653;-81
2023/10/18 04:05:00;;;;;;;5.65;3.00;;;;;;;5.43;62.67;99856.16;4482693;32;33770;-80
2023/10/18 04:07:29;;;;;;;5.18;3.10;;;;;;;5.53;62.26;99862.25;4476166;32;33303;-82
2023/10/18 04:10:12;;;;;;;3.62;2.40;;;;;;;5.45;62.49;99856.19;4461395;32;33497;-82
2023/10/18 04:12:43;;;;;;;6.28;2.87;;;;;;;5.44;62.47;99857.06;4461366;32;34662;-79
2023/10/18 04:15:21;;;;;;;6.60;3.17;;;;;;;4.88;64.37;99856.44;4460491;32;33306;-80
2023/10/18 04:18:02;;;;;;;4.93;2.85;;;;;;;5.33;62.83;99859.50;4468740;32;33391;-81
2023/10/18 04:20:32;;;;;;;5.05;3.47;;;;;;;5.16;63.13;99861.03;4461119;32;33837;-80
2023/10/18 04:23:12;;;;;;;3.47;2.72;;;;;;;5.25;63.01;99861.13;4459927;32;34645;-81
2023/10/18 04:25:42;;;;;;;5.90;2.70;;;;;;;4.96;64.00;99866.78;4458913;32;32172;-80
2023/10/18 04:28:11;;;;;;;5.00;2.97;;;;;;;5.04;63.23;99860.03;4460520;32;33337;-80
2023/10/18 04:30:42;;;;;;;2.42;2.08;;;;;;;5.13;63.08;99869.56;4468396;32;33371;-80
2023/10/18 04:33:24;;;;;;;4.28;2.30;;;;;;;5.23;62.70;99855.97;4461300;32;33167;-80
2023/10/18 04:35:55;;;;;;;2.72;2.37;;;;;;;5.27;62.94;99867.16;4469795;32;33789;-81
2023/10/18 04:38:29;;;;;;;;;;;;;;;5.30;62.65;99870.63;4467716;32;33972;-80
2023/10/18 04:41:06;;;;;;;3.78;2.92;;;;;;;5.31;62.46;99867.19;4471590;32;33589;-80
2023/10/18 04:43:35;;;;;;;7.00;3.53;;;;;;;5.16;63.14;99869.59;4477154;32;33646;-79
2023/10/18 04:46:14;;;;;;;8.38;2.87;;;;;;;5.25;63.11;99868.84;4467906;32;33536;-80
2023/10/18 04:51:56;;;;;;;5.78;3.25;;;;;;;5.87;61.74;99870.31;4501554;31;148583;-81
2023/10/18 04:54:35;;;;;;;5.22;2.80;;;;;;;5.87;61.74;99870.31;4498918;31;32538;-80
2023/10/18 04:57:10;;;;;;;5.62;3.47;;;;;;;4.95;64.08;99871.91;4496718;31;33668;-82
2023/10/18 05:02:29;;;;;;;3.95;3.08;;;;;;;5.09;63.99;99867.81;4501725;31;33361;-82
2023/10/18 05:04:57;;;;;;;5.40;3.53;;;;;;;5.02;64.35;99877.13;4499546;31;34080;-81
2023/10/18 05:07:41;;;;;;;7.75;3.60;;;;;;;4.97;64.32;99876.22;4501247;31;33874;-81
2023/10/18 05:10:20;;;;;;;3.67;2.87;;;;;;;5.09;64.05;99871.22;4500402;31;33833;-80
2023/10/18 05:13:08;;;;;;;5.65;3.22;;;;;;;5.19;63.92;99872.19;4508614;31;33519;-81
2023/10/18 05:15:37;;;;;;;7.00;4.15;;;;;;;5.37;62.89;99868.97;4505810;31;33889;-81
2023/10/18 05:18:15;;;;;;;8.90;3.50;;;;;;;5.18;63.35;99874.78;4497566;31;35000;-80
2023/10/18 05:20:55;;;;;;;5.95;3.80;;;;;;;5.16;63.47;99867.03;4491098;31;33446;-80
2023/10/18 05:23:26;;;;;;;5.03;3.30;;;;;;;5.09;63.72;99871.22;4493159;31;33301;-80
2023/10/18 05:26:08;;;;;;;5.43;3.08;;;;;;;5.27;63.29;99874.88;4483189;31;34287;-82
2023/10/18 05:28:47;;;;;;;8.98;4.65;;;;;;;5.23;63.59;99880.81;4490858;32;34525;-80
2023/10/18 05:34:04;;;;;;;6.60;3.92;;;;;;;5.27;63.92;99893.75;4487723;31;34091;-81
2023/10/18 05:36:42;;;;;;;7.00;3.47;;;;;;;5.39;63.93;99887.00;4486931;32;32538;-80
2023/10/18 05:42:04;;;;;;;6.30;4.12;;;;;;;5.42;64.33;99892.19;4491964;31;33383;-82
2023/10/18 05:44:33;;;;;;;7.72;4.53;;;;;;;5.55;64.07;99892.31;4500280;31;34031;-82
2023/10/18 05:47:06;;;;;;;9.10;3.33;;;;;;;5.48;64.33;99885.38;4485932;31;33137;-81
2023/10/18 05:49:41;;;;;;;7.60;4.20;;;;;;;5.52;64.46;99889.72;4491545;31;33407;-82
2023/10/18 05:52:29;;;;;;;8.13;4.68;;;;;;;5.60;63.86;99887.22;4485140;31;34454;-82
2023/10/18 05:55:00;;;;;;;6.35;3.80;;;;;;;5.69;63.88;99883.88;4485438;31;33421;-80
2023/10/18 05:57:30;;;;;;;10.43;5.20;;;;;;;5.64;64.21;99881.25;4492099;32;32461;-81
2023/10/18 05:59:59;;;;;;;9.57;4.93;;;;;;;5.85;63.76;99874.59;4486404;32;34917;-81
2023/10/18 06:02:30;;;;;;;9.45;5.15;;;;;;;5.61;65.09;99880.38;4480454;32;33417;-82
2023/10/18 06:04:59;;;;;;;5.28;4.28;;;;;;;5.84;64.61;99875.44;4479545;32;33078;-80
2023/10/18 06:07:29;;;;;;;6.87;4.15;;;;;;;5.89;64.68;99884.06;4482482;32;33117;-81
2023/10/18 06:10:00;;;;;;;6.05;4.60;;;;;;;5.94;64.85;99887.56;4477295;32;33352;-82
2023/10/18 06:12:37;;;;;;;5.90;3.53;;;;;;;6.02;64.84;99892.78;4476802;32;34616;-80
2023/10/18 06:15:11;;;;;;;4.45;3.37;;;;;;;6.03;65.28;99897.09;4477386;32;34219;-81
2023/10/18 06:17:52;;;;;;;6.72;3.62;;;;;;;6.14;65.71;99906.62;4477235;32;33768;-80
2023/10/18 06:20:28;;;;;;;6.60;3.90;;;;;;;6.38;64.85;99907.69;4483298;32;33650;-80
2023/10/18 06:23:32;;;;;;;8.07;3.90;;;;;;;6.39;65.42;99907.69;4482832;32;33771;-80
2023/10/18 06:26:30;;;;;;;7.12;4.78;;;;;;;6.47;65.58;99904.28;4483119;32;34431;-80
2023/10/18 06:29:08;;;;;;;;;;;;;;;6.61;65.66;99906.09;4477785;32;33138;-82
2023/10/18 06:31:43;;;;;;;9.05;4.35;;;;;;;6.82;64.95;99914.84;4477928;32;34953;-80
2023/10/18 06:34:17;;;;;;;7.95;4.65;;;;;;;6.87;64.97;99908.00;4479341;32;33594;-81
2023/10/18 06:36:47;;;;;;;8.18;4.10;;;;;;;6.71;65.77;99904.44;4477389;32;33631;-82
2023/10/18 06:39:27;;;;;;;10.43;3.43;;;;;;;6.96;65.22;99920.06;4482937;32;33605;-82
2023/10/18 06:41:56;;;;;;;6.87;3.37;;;;;;;7.11;65.24;99924.44;4479012;31;33604;-82
2023/10/18 06:44:29;;;;;;;5.20;3.45;;;;;;;7.14;65.09;99925.31;4486312;31;35549;-80
2023/10/18 06:47:01;;;;;;;5.28;3.12;;;;;;;7.19;65.53;99922.75;4478933;31;33778;-81
2023/10/18 06:49:30;;;;;;;5.60;3.72;;;;;;;7.14;65.93;99917.56;4479774;31;33027;-81
2023/10/18 06:52:00;;;;;;;6.45;3.40;;;;;;;7.42;65.38;99915.97;4477650;31;33654;-82
2023/10/18 06:54:31;;;;;;;6.10;3.67;;;;;;;7.44;65.53;99921.12;4479626;31;34445;-81
2023/10/18 06:57:15;;;;;;;6.15;3.12;;;;;;;7.43;65.38;99919.41;4485130;31;33121;-81
2023/10/18 06:59:48;;;;;;;6.90;3.10;;;;;;;7.42;65.91;99912.53;4481488;31;32967;-81
2023/10/18 07:02:26;;;;;;;6.35;3.33;;;;;;;7.58;65.27;99910.84;4484362;31;33833;-82
2023/10/18 07:04:56;;;;;;;5.55;3.40;;;;;;;7.71;64.97;99917.78;4489324;31;34852;-82
2023/10/18 07:07:28;;;;;;;4.25;2.95;;;;;;;8.02;63.62;99912.63;4481584;31;34401;-82
2023/10/18 07:09:59;;;;;;;9.32;3.85;;;;;;;8.02;64.27;99912.63;4477160;32;33150;-82
2023/10/18 07:12:36;;;;;;;4.47;3.08;;;;;;;7.62;65.57;99908.28;4478945;31;33739;-81
2023/10/18 07:15:09;;;;;;;4.78;3.05;;;;;;;8.10;64.50;99911.78;4489633;31;33582;-82
2023/10/18 07:17:38;;;;;;;4.95;3.12;;;;;;;8.10;64.17;99910.91;4490054;31;32845;-81
2023/10/18 07:20:15;;;;;;;7.12;2.95;;;;;;;8.24;64.37;99911.78;4483034;31;32997;-82
2023/10/18 07:22:45;;;;;;;4.95;3.05;;;;;;;8.12;65.06;99920.41;4483033;31;33850;-82
2023/10/18 07:25:19;;;;;;;7.65;3.50;;;;;;;8.54;63.35;99916.09;4481155;31;34108;-82
2023/10/18 07:27:49;;;;;;;9.00;3.85;;;;;;;8.54;63.35;99917.81;4490643;31;33441;-81
2023/10/18 07:30:20;;;;;;;6.57;3.67;;;;;;;8.47;63.56;99913.53;4476721;32;33229;-81
2023/10/18 07:32:57;;;;;;;5.97;3.00;;;;;;;8.75;62.61;99916.94;4476528;32;33693;-81
2023/10/18 07:35:30;;;;;;;7.80;3.97;;;;;;;8.67;62.69;99909.16;4476874;32;34894;-83
2023/10/18 07:37:59;;;;;;;6.55;3.97;;;;;;;8.70;62.55;99900.56;4482768;31;33415;-81
2023/10/18 07:40:33;;;;;;;5.32;3.45;;;;;;;8.97;61.52;99900.47;4489594;31;32859;-81
2023/10/18 07:43:05;;;;;;;6.75;4.78;;;;;;;8.98;61.30;99902.19;4492275;31;34152;-82
2023/10/18 07:45:35;;;;;;;6.53;3.83;;;;;;;9.17;60.71;99905.56;4485451;31;34675;-83
2023/10/18 07:48:06;;;;;;;8.05;4.70;;;;;;;8.92;61.58;99902.22;4485584;31;33106;-81
2023/10/18 07:50:42;;;;;;;6.03;3.33;;;;;;;8.70;62.02;99897.97;4480966;31;32649;-82
2023/10/18 07:53:14;;;;;;;5.00;3.20;;;;;;;8.96;61.41;99901.34;4482165;32;33449;-84
2023/10/18 07:55:43;;;;;;;;;;;;;;;9.30;60.27;99896.03;4478914;31;33094;-81
2023/10/18 07:58:23;;;;;;;4.72;2.95;;;;;;;8.94;61.24;99891.88;4483102;31;34210;-83
2023/10/18 08:01:09;;;;;;;4.32;2.67;;;;;;;9.29;60.10;99891.72;4483300;31;33076;-82
2023/10/18 08:03:39;;;;;;;6.18;3.25;;;;;;;9.31;60.17;99886.53;4483759;31;33539;-81
2023/10/18 08:06:15;;;;;;;4.60;3.00;;;;;;;9.46;60.26;99895.97;4482073;32;34292;-82
2023/10/18 08:08:46;;;;;;;5.85;3.35;;;;;;;9.61;59.56;99893.28;4476456;32;33452;-83
2023/10/18 08:11:16;;;;;;;6.65;3.80;;;;;;;9.56;60.03;99892.44;4476651;32;33178;-83
2023/10/18 08:13:46;;;;;;;5.82;3.10;;;;;;;9.59;60.15;99895.00;4478884;31;33817;-83
2023/10/18 08:16:20;;;;;;;5.75;3.35;;;;;;;9.61;59.96;99886.34;4478816;31;33805;-83
2023/10/18 08:18:58;;;;;;;8.75;4.10;;;;;;;9.93;58.88;99881.81;4482220;32;34220;-83
2023/10/18 08:21:28;;;;;;;7.25;3.95;;;;;;;10.03;58.81;99881.75;4476373;31;33647;-82
2023/10/18 08:23:57;;;;;;;8.07;3.75;;;;;;;10.06;58.89;99888.66;4478713;31;33119;-81
2023/10/18 08:26:29;;;;;;;8.15;3.72;;;;;;;10.16;58.41;99876.47;4482298;31;34097;-81
2023/10/18 08:28:59;;;;;;;5.07;3.03;;;;;;;10.08;58.46;99876.53;4483793;31;33274;-82
2023/10/18 08:31:33;;;;;;;7.95;3.28;;;;;;;10.41;57.13;99877.13;4476364;32;32423;-83
2023/10/18 08:34:05;;;;;;;6.15;3.28;;;;;;;10.38;57.49;99878.03;4476160;32;33536;-81
2023/10/18 08:36:34;;;;;;;8.88;3.58;;;;;;;10.35;57.18;99879.78;4474632;32;33854;-83
2023/10/18 08:39:03;;;;;;;6.00;3.35;;;;;;;10.54;56.71;99878.75;4466713;31;33605;-82
2023/10/18 08:41:33;;;;;;;6.10;3.12;;;;;;;10.77;55.84;99872.44;4497098;31;33994;-82
2023/10/18 08:44:09;;;;;;;5.72;3.22;;;;;;;10.38;56.56;99869.38;4491898;31;33128;-82
2023/10/18 08:46:43;;;;;;;4.37;2.67;;;;;;;10.55;56.21;99867.47;4479225;31;33763;-83
2023/10/18 08:49:14;;;;;;;4.62;3.25;;;;;;;10.64;56.03;99869.13;4475828;31;34186;-83
2023/10/18 08:51:45;;;;;;;7.40;3.40;;;;;;;11.08;54.38;99873.81;4482988;31;34741;-83
2023/10/18 08:54:19;;;;;;;5.93;3.20;;;;;;;10.66;55.12;99869.97;4497387;31;34037;-82
2023/10/18 08:56:49;;;;;;;5.00;3.25;;;;;;;10.78;54.66;99864.66;4492015;31;33614;-82
2023/10/18 08:59:19;;;;;;;5.53;3.08;;;;;;;10.70;55.09;99857.81;4491727;31;33626;-84
2023/10/18 09:04:35;;;;;;;7.35;3.12;;;;;;;10.83;54.24;99870.66;4473395;32;33511;-81
2023/10/18 09:07:18;;;;;;;5.00;2.78;;;;;;;11.13;52.83;99859.91;4487119;31;33215;-82
2023/10/18 09:09:53;;;;;;;5.18;2.87;;;;;;;11.36;52.46;99854.44;4460029;32;33488;-82
2023/10/18 09:12:36;;;;;;;5.93;3.35;;;;;;;11.37;52.30;99854.38;4474310;31;33718;-84
2023/10/18 09:17:50;;;;;;;6.43;3.30;;;;;;;11.15;52.63;99848.63;4487684;31;33600;-82
2023/10/18 09:20:25;;;;;;;5.82;3.15;;;;;;;11.07;52.62;99850.47;4491858;31;34438;-83
2023/10/18 09:22:54;;;;;;;5.68;3.20;;;;;;;11.42;51.74;99855.19;4477557;31;34008;-82
2023/10/18 09:25:24;;;;;;;5.93;3.22;;;;;;;11.75;51.23;99856.44;4475092;32;33718;-83
2023/10/18 09:28:06;;;;;;;4.57;2.53;;;;;;;11.71;51.42;99853.91;4479078;31;33454;-83
2023/10/18 09:30:36;;;;;;;6.60;2.95;;;;;;;11.66;50.42;99853.97;4479743;31;33865;-82
2023/10/18 09:33:06;;;;;;;6.30;3.05;;;;;;;12.07;49.92;99846.44;4487111;31;32594;-83
2023/10/18 09:35:35;;;;;;;2.97;2.15;;;;;;;12.08;49.73;99840.34;4482516;31;33070;-82
2023/10/18 09:38:07;;;;;;;5.55;2.87;;;;;;;12.30;48.26;99838.25;4478921;31;33667;-83
2023/10/18 09:40:38;;;;;;;5.93;3.20;;;;;;;12.54;47.96;99839.50;4477429;32;33867;-82
2023/10/18 09:43:07;;;;;;;5.22;2.65;;;;;;;12.41;47.57;99840.66;4478140;32;32436;-83
2023/10/18 09:45:37;;;;;;;4.80;2.53;;;;;;;12.42;47.71;99837.12;4482722;32;33345;-83
2023/10/18 09:48:08;;;;;;;8.20;2.17;;;;;;;12.39;46.86;99843.25;4483281;31;34340;-83
2023/10/18 09:50:39;;;;;;;5.45;2.78;;;;;;;12.56;46.89;99836.03;4483359;31;33336;-82
2023/10/18 09:53:11;;;;;;;3.25;2.05;;;;;;;12.80;46.90;99832.06;4477693;31;33118;-82
2023/10/18 09:55:42;;;;;;;;;;;;;;;12.91;46.59;99834.47;4483082;32;34216;-84
2023/10/18 09:58:18;;;;;;;4.53;2.40;;;;;;;13.00;46.83;99831.66;4481768;31;34144;-83
2023/10/18 10:00:56;;;;;;;5.72;2.87;;;;;;;12.94;46.84;99836.13;4481149;31;34202;-81
2023/10/18 10:03:27;;;;;;;5.43;2.75;;;;;;;12.94;46.32;99828.34;4480935;31;32855;-82
2023/10/18 10:05:57;;;;;;;6.83;2.63;;;;;;;13.02;46.47;99821.19;4473683;32;31983;-83
2023/10/18 10:08:31;;;;;;;4.32;2.58;;;;;;;12.99;46.17;99823.88;4482872;31;33757;-82
2023/10/18 10:11:13;;;;;;;4.28;2.67;;;;;;;13.34;44.81;99814.50;4476540;32;34418;-82
2023/10/18 10:13:45;;;;;;;4.32;2.45;;;;;;;13.19;45.96;99815.63;4476169;32;34014;-83
2023/10/18 10:16:13;;;;;;;;;;;;;;;13.00;46.30;99815.19;4475391;32;34445;-82
2023/10/18 10:18:47;;;;;;;4.22;2.35;;;;;;;13.48;46.09;99804.59;4476751;32;34066;-83
2023/10/18 10:21:21;;;;;;;3.35;1.67;;;;;;;13.15;45.12;99806.19;4480974;32;33616;-83
2023/10/18 10:24:06;;;;;;;2.72;1.40;;;;;;;13.47;44.81;99796.81;4474714;32;33243;-82
2023/10/18 10:26:36;;;;;;;7.15;2.10;;;;;;;13.75;44.78;99797.00;4475170;32;33438;-82
2023/10/18 10:31:58;;;;;;;3.55;1.92;;;;;;;13.76;44.51;99785.69;4474716;32;32976;-82
2023/10/18 10:34:34;;;;;;;9.00;2.33;;;;;;;13.82;44.50;99783.81;4479148;32;33827;-82
2023/10/18 10:37:06;;;;;;;4.80;2.85;;;;;;;13.96;43.47;99779.97;4482355;32;33713;-84
2023/10/18 10:39:43;;;;;;;3.70;1.87;;;;;;;13.93;43.71;99783.50;4475259;32;33816;-83
2023/10/18 10:42:27;;;;;;;4.80;1.98;;;;;;;13.73;43.76;99780.56;4473732;32;34083;-83
2023/10/18 10:45:02;;;;;;;4.60;2.10;;;;;;;13.87;43.14;99770.66;4475219;32;33468;-83
2023/10/18 10:47:42;;;;;;;7.28;2.45;;;;;;;13.68;42.93;99766.78;4476552;32;33443;-84
2023/10/18 10:50:42;;;;;;;4.57;2.20;;;;;;;14.18;42.35;99768.09;4482582;32;34417;-83
2023/10/18 10:53:11;;;;;;;5.25;2.62;;;;;;;14.01;42.14;99762.44;4482665;32;33581;-84
2023/10/18 10:55:40;;;;;;;2.95;1.87;;;;;;;14.26;42.07;99768.75;4476793;32;33011;-83
2023/10/18 10:58:16;;;;;;;5.80;2.08;;;;;;;14.23;41.85;99761.00;4477068;32;33771;-83
2023/10/18 11:01:02;;;;;;;5.20;2.53;;;;;;;14.09;41.80;99753.53;4475360;32;34341;-83
2023/10/18 11:03:46;;;;;;;8.13;2.00;;;;;;;14.25;41.62;99745.28;4475961;32;34638;-83
2023/10/18 11:06:23;;;;;;;2.53;1.60;;;;;;;14.52;41.91;99757.59;4481687;32;32894;-82
2023/10/18 11:08:52;;;;;;;5.25;1.85;;;;;;;14.37;41.32;99747.56;4476312;32;33576;-82
2023/10/18 11:11:22;;;;;;;4.25;2.00;;;;;;;14.21;41.82;99744.53;4476358;32;34021;-82
2023/10/18 11:13:51;;;;;;;2.87;1.52;;;;;;;14.56;41.43;99732.25;4476732;32;33605;-83
2023/10/18 11:16:21;;;;;;;2.42;1.60;;;;;;;14.54;41.81;99734.06;4476769;32;33434;-82
2023/10/18 11:18:52;;;;;;;5.00;1.70;;;;;;;14.64;42.27;99735.53;4482597;32;33939;-81
2023/10/18 11:21:24;;;;;;;2.60;1.65;;;;;;;14.51;42.95;99726.28;4476805;32;33662;-82
2023/10/18 11:23:57;;;;;;;3.20;2.12;;;;;;;14.75;42.11;99722.12;4474113;32;34148;-82
2023/10/18 11:26:27;;;;;;;1.98;1.60;;;;;;;14.44;41.68;99730.81;4476869;32;33806;-84
2023/10/18 11:28:59;;;;;;;4.37;2.05;;;;;;;14.63;40.62;99725.13;4481753;32;33200;-84
2023/10/18 11:31:28;;;;;;;3.50;2.00;;;;;;;14.56;41.60;99724.44;4476252;32;33627;-82
2023/10/18 11:34:05;;;;;;;3.20;2.03;;;;;;;14.80;41.29;99712.41;4476703;32;33635;-84
2023/10/18 11:36:38;;;;;;;4.82;2.40;;;;;;;14.79;41.34;99697.66;4480776;31;32335;-82
2023/10/18 11:39:19;;;;;;;2.62;1.85;;;;;;;14.86;41.31;99704.41;4478488;31;33438;-82
2023/10/18 11:41:53;;;;;;;3.45;1.67;;;;;;;14.71;42.31;99697.00;4491483;31;33783;-82
2023/10/18 11:44:27;;;;;;;3.60;1.60;;;;;;;15.09;41.70;99690.59;4489478;31;33556;-82
2023/10/18 11:47:03;;;;;;;3.45;2.22;;;;;;;15.34;40.89;99685.47;4476546;32;32957;-83
2023/10/18 11:49:37;;;;;;;3.72;2.15;;;;;;;15.20;41.31;99689.41;4484691;31;33597;-83
2023/10/18 11:52:14;;;;;;;4.47;2.25;;;;;;;15.26;41.38;99684.84;4492318;31;33544;-82
2023/10/18 11:54:44;;;;;;;4.28;2.25;;;;;;;15.44;40.99;99685.12;4488601;31;33279;-83
2023/10/18 11:57:30;;;;;;;3.83;1.95;;;;;;;15.58;40.94;99675.06;4484062;31;33926;-84
2023/10/18 12:02:45;;;;;;;3.15;2.03;;;;;;;15.53;41.05;99679.59;4482407;31;33715;-82
2023/10/18 12:05:15;;;;;;;2.85;1.90;;;;;;;15.63;41.37;99683.59;4467784;31;33339;-82
2023/10/18 12:07:53;;;;;;;4.30;2.40;;;;;;;15.63;40.67;99673.16;4483068;31;33251;-83
2023/10/18 12:10:34;;;;;;;4.15;2.00;;;;;;;15.63;40.58;99673.16;4497781;31;33649;-83
2023/10/18 12:13:07;;;;;;;5.55;2.40;;;;;;;15.58;40.80;99664.59;4492118;31;33976;-82
2023/10/18 12:15:37;;;;;;;5.50;2.37;;;;;;;15.63;40.40;99654.84;4491789;31;34291;-82
2023/10/18 12:18:06;;;;;;;2.85;1.92;;;;;;;15.62;40.98;99663.59;4489936;31;32663;-83
2023/10/18 12:20:43;;;;;;;4.12;1.77;;;;;;;15.70;40.86;99660.75;4477761;32;33524;-83
2023/10/18 12:23:18;;;;;;;3.28;1.80;;;;;;;15.72;40.35;99657.19;4482031;32;33829;-83
2023/10/18 12:25:47;;;;;;;4.40;1.98;;;;;;;15.43;40.65;99649.44;4483052;31;33598;-83
2023/10/18 12:28:18;;;;;;;4.18;2.42;;;;;;;15.20;40.85;99647.59;4482653;31;33034;-83
2023/10/18 12:30:52;;;;;;;3.60;2.03;;;;;;;15.34;40.57;99643.63;4479017;31;33061;-82